Latest Weather Observations for Cabramurra

IDN60901

Issued at 11:55 pm EDT Monday 20 October 2014 (issued every 10 minutes, with the page automatically refreshed every 10 minutes)

About weather observations | Map of Canberra area stations | Latest observations for Canberra area | Other Formats
Station Details ID: 072161 Name: CABRAMURRA SMHEA AWS Lat: -35.94 Lon: 148.38 Height: 1482.4 m
Data from the previous 72 hours. | See also: Recent months at Cabramurra
Date/Time
EDT
Tmp

°C
App
Tmp
°C
Dew
Point
°C
Rel
Hum
%
Delta-T

°C
Wind Press
QNH
hPa
Press
MSL
hPa
Rain
since
9 am
mm
Dir
 
Spd
km/h
Gust
km/h
Spd
kts
Gust
kts
20/11:30pm 4.9 -2.3 4.8 99 0.0 E 32 44 17 24 - - 0.0
20/11:00pm 5.1 -1.7 5.0 99 0.0 E 30 41 16 22 - - 0.0
20/10:30pm 5.3 -2.1 5.2 99 0.0 E 33 46 18 25 - - 0.0
20/10:00pm 5.4 -1.7 5.3 99 0.0 ESE 32 44 17 24 - - 0.0
20/09:30pm 5.6 -1.5 5.5 99 0.0 E 32 44 17 24 - - 0.0
20/09:01pm 5.8 -1.3 5.7 99 0.0 ESE 32 50 17 27 - - 0.0
20/09:00pm 5.8 -1.3 5.7 99 0.0 E 32 44 17 24 - - 0.0
20/08:30pm 6.1 -0.9 6.0 99 0.0 E 32 46 17 25 - - 0.0
20/08:00pm 6.2 -1.3 6.1 99 0.0 E 35 48 19 26 - - 0.0
20/07:30pm 6.8 -0.7 6.1 95 0.3 E 35 48 19 26 - - 0.0
20/07:00pm 7.4 -0.6 5.9 90 0.7 E 37 48 20 26 - - 0.0
20/06:30pm 8.6 1.0 5.9 83 1.3 E 35 50 19 27 - - 0.0
20/06:00pm 10.6 4.4 6.2 74 2.2 E 28 39 15 21 - - 0.0
20/05:30pm 11.9 5.3 6.2 68 2.9 E 30 39 16 21 - - 0.0
20/05:00pm 13.1 8.7 6.7 65 3.3 ESE 19 35 10 19 - - 0.0
20/04:30pm 14.9 12.3 6.2 56 4.5 E 9 17 5 9 - - 0.0
20/04:00pm 17.5 13.6 7.3 51 5.5 WSW 17 24 9 13 - - 0.0
20/03:30pm 18.7 14.5 7.5 48 6.1 WNW 19 28 10 15 - - 0.0
20/03:00pm 18.5 13.9 6.4 45 6.5 WNW 20 30 11 16 - - 0.0
20/02:30pm 18.5 13.9 6.4 45 6.5 W 20 35 11 19 - - 0.0
20/02:00pm 18.5 13.4 3.2 36 7.7 WSW 19 37 10 20 - - 0.0
20/01:30pm 19.3 14.6 3.1 34 8.2 W 17 28 9 15 - - 0.0
20/01:00pm 19.1 13.8 2.9 34 8.2 WNW 20 35 11 19 - - 0.0
20/12:30pm 18.9 13.5 1.4 31 8.5 WNW 19 30 10 16 - - 0.0
20/12:00pm 18.6 15.5 7.4 48 6.1 NW 13 20 7 11 - - 0.0
20/11:30am 17.3 13.2 2.1 36 7.4 NW 13 22 7 12 - - 0.0
20/11:00am 17.0 13.4 3.0 39 7.0 NW 11 19 6 10 - - 0.0
20/10:30am 16.3 12.7 3.0 41 6.6 NNW 11 15 6 8 - - 0.0
20/10:00am 16.0 12.6 4.1 45 6.0 NNW 11 15 6 8 - - 0.0
20/09:30am 15.3 12.1 3.1 44 6.0 N 9 13 5 7 - - 0.0
20/09:00am 15.1 12.0 3.6 46 5.7 N 9 15 5 8 - - 0.0
20/08:30am 14.5 11.3 3.0 46 5.6 NNW 9 13 5 7 - - 0.0
20/08:00am 13.9 10.1 1.5 43 5.8 NNW 11 19 6 10 - - 0.0
20/07:30am 13.3 9.4 1.0 43 5.7 NNW 11 15 6 8 - - 0.0
20/07:00am 12.6 8.6 0.7 44 5.5 NW 11 15 6 8 - - 0.0
20/06:30am 11.7 8.1 0.8 47 5.0 NW 9 13 5 7 - - 0.0
20/06:00am 12.4 8.4 0.5 44 5.4 NW 11 17 6 9 - - 0.0
20/05:30am 12.7 8.3 0.5 43 5.6 WNW 13 24 7 13 - - 0.0
20/05:00am 13.0 8.9 0.1 41 5.9 NW 11 20 6 11 - - 0.0
20/04:30am 12.8 8.4 0.2 42 5.7 NNW 13 20 7 11 - - 0.0
20/04:00am 12.9 8.5 0.3 42 5.7 NW 13 19 7 10 - - 0.0
20/03:30am 12.7 8.6 0.1 42 5.7 NW 11 15 6 8 - - 0.0
20/03:00am 13.1 8.3 0.5 42 5.8 NW 15 20 8 11 - - 0.0
20/02:30am 13.4 8.3 0.8 42 5.8 NW 17 20 9 11 - - 0.0
20/02:00am 13.7 8.6 0.7 41 6.0 NW 17 24 9 13 - - 0.0
20/01:30am 13.3 9.0 1.0 43 5.7 NW 13 19 7 10 - - 0.0
20/01:00am 13.3 8.2 0.7 42 5.8 NW 17 20 9 11 - - 0.0
20/12:30am 13.7 8.6 1.0 42 5.9 NW 17 24 9 13 - - 0.0
20/12:00am 13.1 8.5 1.5 45 5.4 NW 15 20 8 11 - - 0.0
 
Date/Time
EDT
Tmp

°C
App
Tmp
°C
Dew
Point
°C
Rel
Hum
%
Delta-T

°C
Wind Press
QNH
hPa
Press
MSL
hPa
Rain
since
9 am
mm
Dir
 
Spd
km/h
Gust
km/h
Spd
kts
Gust
kts
19/11:30pm 13.5 8.6 1.8 45 5.5 NW 17 24 9 13 - - 0.0
19/11:00pm 13.6 9.1 1.9 45 5.5 WNW 15 20 8 11 - - 0.0
19/10:30pm 13.7 9.5 1.7 44 5.7 WNW 13 20 7 11 - - 0.0
19/10:00pm 12.7 9.4 2.3 49 4.9 WNW 9 13 5 7 - - 0.0
19/09:30pm 12.0 8.8 3.0 54 4.3 W 9 11 5 6 - - 0.0
19/09:00pm 11.9 8.7 5.1 63 3.4 NW 11 13 6 7 - - 0.0
19/08:30pm 11.7 8.8 4.9 63 3.4 NW 9 9 5 5 - - 0.0
19/08:00pm 12.4 9.6 5.3 62 3.6 W 9 13 5 7 - - 0.0
19/07:30pm 12.7 9.5 4.9 59 3.9 W 11 15 6 8 - - 0.0
19/07:00pm 13.0 9.3 4.4 56 4.3 WSW 13 20 7 11 - - 0.0
19/06:30pm 14.1 10.4 4.7 53 4.7 W 13 20 7 11 - - 0.0
19/06:00pm 14.6 11.0 3.1 46 5.6 W 11 20 6 11 - - 0.0
19/05:30pm 14.0 10.5 3.5 49 5.2 WNW 11 17 6 9 - - 0.0
19/05:00pm 14.4 10.4 2.6 45 5.7 W 13 20 7 11 - - 0.0
19/04:30pm 14.7 10.2 2.3 43 6.0 W 15 22 8 12 - - 0.0
19/04:00pm 16.2 11.7 4.3 45 6.0 WNW 17 24 9 13 - - 0.0
19/03:30pm 16.3 11.4 2.0 38 6.9 WNW 17 24 9 13 - - 0.0
19/03:00pm 16.3 11.8 2.0 38 6.9 WNW 15 20 8 11 - - 0.0
19/02:30pm 16.0 11.5 2.4 40 6.6 W 15 20 8 11 - - 0.0
19/02:00pm 15.8 11.1 0.8 36 7.1 WNW 15 20 8 11 - - 0.0
19/01:30pm 15.6 11.4 4.0 46 5.8 WNW 15 24 8 13 - - 0.0
19/01:00pm 15.3 11.2 2.1 41 6.4 WNW 13 22 7 12 - - 0.0
19/12:30pm 14.5 11.3 3.3 47 5.5 WNW 9 13 5 7 - - 0.0
19/12:00pm 13.6 9.4 1.9 45 5.5 NW 13 17 7 9 - - 0.0
19/11:30am 14.4 10.5 3.2 47 5.5 WNW 13 17 7 9 - - 0.0
19/11:00am 14.5 10.8 2.1 43 5.9 NW 11 15 6 8 - - 0.0
19/10:30am 13.7 10.2 1.0 42 5.9 NW 9 13 5 7 - - 0.0
19/10:00am 13.8 10.1 -0.3 38 6.4 NW 9 13 5 7 - - 0.0
19/09:30am 14.5 11.1 -2.4 31 7.4 NW 6 9 3 5 - - 0.0
19/09:00am 14.1 9.9 -3.6 29 7.5 SSW 9 13 5 7 - - 0.0
19/08:30am 13.6 8.6 -4.5 28 7.5 S 13 19 7 10 - - 0.0
19/08:00am 12.9 7.5 -4.2 30 7.1 S 15 19 8 10 - - 0.0
19/07:30am 11.6 5.4 -4.5 32 6.5 S 19 24 10 13 - - 0.0
19/07:00am 10.5 4.6 -5.9 31 6.4 S 17 19 9 10 - - 0.0
19/06:30am 10.1 4.6 -5.8 32 6.1 S 15 19 8 10 - - 0.0
19/06:00am 9.9 4.0 -6.0 32 6.1 S 17 22 9 12 - - 0.0
19/05:30am 9.9 4.4 -5.6 33 6.0 S 15 19 8 10 - - 0.0
19/05:00am 9.5 4.5 -4.4 37 5.5 S 13 15 7 8 - - 0.0
19/04:30am 9.0 4.4 -1.4 48 4.4 S 13 15 7 8 - - 0.0
19/04:00am 8.4 4.0 0.1 56 3.6 S 13 15 7 8 - - 0.0
19/03:30am 8.5 4.5 0.5 57 3.5 SSW 11 13 6 7 - - 0.0
19/03:00am 8.4 4.4 0.6 58 3.4 SSW 11 13 6 7 - - 0.0
19/02:30am 8.2 5.1 1.6 63 3.0 S 7 11 4 6 - - 0.0
19/02:00am 8.1 5.1 1.9 65 2.8 SSW 7 9 4 5 - - 0.0
19/01:30am 8.1 4.7 1.9 65 2.8 SW 9 11 5 6 - - 0.0
19/01:00am 8.3 5.1 2.8 68 2.5 SSW 9 11 5 6 - - 0.0
19/12:30am 8.0 5.2 2.9 70 2.4 SW 7 7 4 4 - - 0.0
19/12:00am 8.4 5.7 3.5 71 2.3 WSW 7 11 4 6 - - 0.0
 
Date/Time
EDT
Tmp

°C
App
Tmp
°C
Dew
Point
°C
Rel
Hum
%
Delta-T

°C
Wind Press
QNH
hPa
Press
MSL
hPa
Rain
since
9 am
mm
Dir
 
Spd
km/h
Gust
km/h
Spd
kts
Gust
kts
18/11:30pm 8.3 4.9 2.1 65 2.8 WSW 9 9 5 5 - - 0.0
18/11:00pm 8.7 7.0 1.8 62 3.1 CALM 0 0 0 0 - - 0.0
18/10:30pm 8.8 7.1 1.7 61 3.2 CALM 0 0 0 0 - - 0.0
18/10:00pm 9.1 7.2 0.8 56 3.7 CALM 0 0 0 0 - - 0.0
18/09:30pm 8.6 6.8 1.3 60 3.3 CALM 0 0 0 0 - - 0.0
18/09:00pm 8.7 6.7 0.2 55 3.7 CALM 0 0 0 0 - - 0.0
18/08:30pm 8.6 5.5 0.3 56 3.6 WSW 6 13 3 7 - - 0.0
18/08:00pm 8.9 5.5 -0.4 52 4.0 WNW 7 9 4 5 - - 0.0
18/07:30pm 9.1 5.7 -0.5 51 4.2 NW 7 11 4 6 - - 0.0
18/07:00pm 10.0 7.7 0.3 51 4.3 NW 2 9 1 5 - - 0.0
18/06:30pm 10.9 7.1 1.7 53 4.2 WNW 11 15 6 8 - - 0.0
18/06:00pm 11.9 8.5 2.1 51 4.6 WNW 9 15 5 8 - - 0.0
18/05:30pm 12.5 8.9 2.7 51 4.7 WSW 11 17 6 9 - - 0.0
18/05:00pm 11.9 7.2 0.7 46 5.1 W 15 20 8 11 - - 0.0
18/04:30pm 12.5 7.5 -1.1 39 6.0 W 15 22 8 12 - - 0.0
18/04:00pm 12.6 8.3 1.3 46 5.2 WNW 13 20 7 11 - - 0.0
18/03:30pm 12.5 8.0 2.1 49 4.9 W 15 24 8 13 - - 0.0
18/03:00pm 11.7 6.2 0.8 47 5.0 WNW 19 26 10 14 - - 0.0
18/02:30pm 11.7 6.9 2.7 54 4.3 W 17 28 9 15 - - 0.0
18/02:00pm 11.4 6.3 2.9 56 4.0 W 19 28 10 15 - - 0.0
18/01:30pm 11.7 7.2 4.4 61 3.6 W 17 22 9 12 - - 0.0
18/01:00pm 11.6 7.1 4.1 60 3.7 W 17 26 9 14 - - 0.0
18/12:30pm 11.1 7.0 4.1 62 3.4 W 15 20 8 11 - - 0.0
18/12:00pm 11.1 7.9 5.0 66 3.0 W 11 19 6 10 - - 0.0
18/11:30am 10.2 6.3 3.5 63 3.2 WNW 13 19 7 10 - - 0.0
18/11:00am 9.5 6.5 1.7 58 3.6 WNW 7 13 4 7 - - 0.0
18/10:30am 9.1 6.3 2.9 65 2.9 WNW 7 13 4 7 - - 0.0
18/10:00am 8.2 4.7 1.1 61 3.2 W 9 13 5 7 - - 0.0
18/09:30am 7.9 4.8 1.5 64 2.9 WSW 7 9 4 5 - - 0.0
18/09:00am 7.2 3.8 1.7 68 2.5 W 9 13 5 7 - - 0.0
18/08:30am 6.5 3.1 1.8 72 2.1 WSW 9 13 5 7 - - 0.0
18/08:00am 5.7 2.3 1.6 75 1.8 WSW 9 11 5 6 - - 0.0
18/07:30am 4.8 1.6 0.9 76 1.7 SW 7 9 4 5 - - 0.0
18/07:00am 4.4 1.3 1.3 80 1.3 WSW 7 9 4 5 - - 0.0
18/06:30am 4.0 1.1 1.4 83 1.1 SW 6 7 3 4 - - 0.0
18/06:00am 4.3 2.5 1.5 82 1.2 CALM 0 0 0 0 - - 0.0
18/05:30am 3.9 2.2 2.1 88 0.8 CALM 0 0 0 0 - - 0.0
18/05:00am 3.8 0.8 2.0 88 0.8 WSW 7 9 4 5 - - 0.0
18/04:30am 4.1 1.1 2.3 88 0.8 NW 7 9 4 5 - - 0.0
18/04:00am 3.8 0.8 1.8 87 0.9 WNW 7 9 4 5 - - 0.0
18/03:30am 4.2 1.2 2.1 86 0.9 NW 7 9 4 5 - - 0.0
18/03:00am 4.4 1.0 1.8 83 1.1 NW 9 11 5 6 - - 0.0
18/02:30am 4.3 1.6 2.7 89 0.7 NNW 6 7 3 4 - - 0.0
18/02:00am 4.0 1.2 3.3 95 0.3 N 7 11 4 6 - - 0.0
18/01:30am 4.4 1.2 0.9 78 1.5 NW 7 11 4 6 - - 0.0
18/01:00am 5.3 1.9 2.0 79 1.5 WNW 9 13 5 7 - - 0.0
18/12:30am 5.1 1.7 1.6 78 1.5 NW 9 11 5 6 - - 0.0
18/12:00am 5.6 3.8 1.2 73 1.9 CALM 0 0 0 0 - - 0.0

Latest Capital City Observations: Canberra | Sydney | Melbourne | Brisbane | Adelaide | Perth | Hobart | Darwin

Other Formats:

Comma delimited format used in spreadsheet applications
http://www.bom.gov.au/fwo/IDN60903/IDN60903.95916.axf

JavaScript Object Notation format (JSON) in row-major order
http://www.bom.gov.au/fwo/IDN60903/IDN60903.95916.json